sensor_id;sensor_type;location;lat;lon;timestamp;pressure;altitude;pressure_sealevel;temperature;humidity
81961;BME280;71462;50.650;6.888;2024-03-08T00:00:31;99808.72;;;2.18;55.79
81961;BME280;71462;50.650;6.888;2024-03-08T00:02:59;99800.91;;;2.11;55.91
81961;BME280;71462;50.650;6.888;2024-03-08T00:05:30;99793.25;;;2.21;55.92
81961;BME280;71462;50.650;6.888;2024-03-08T00:08:01;99795.88;;;2.21;55.97
81961;BME280;71462;50.650;6.888;2024-03-08T00:10:30;99799.78;;;2.19;55.86
81961;BME280;71462;50.650;6.888;2024-03-08T00:12:57;99794.72;;;2.17;55.90
81961;BME280;71462;50.650;6.888;2024-03-08T00:15:25;99789.59;;;2.22;56.03
81961;BME280;71462;50.650;6.888;2024-03-08T00:17:55;99790.16;;;2.24;55.80
81961;BME280;71462;50.650;6.888;2024-03-08T00:20:23;99795.44;;;2.24;56.36
81961;BME280;71462;50.650;6.888;2024-03-08T00:22:51;99793.81;;;2.23;56.10
81961;BME280;71462;50.650;6.888;2024-03-08T00:25:21;99785.69;;;2.25;56.18
81961;BME280;71462;50.650;6.888;2024-03-08T00:27:49;99792.75;;;2.13;56.66
81961;BME280;71462;50.650;6.888;2024-03-08T00:30:17;99787.63;;;2.18;56.28
81961;BME280;71462;50.650;6.888;2024-03-08T00:32:45;99784.47;;;1.98;56.98
81961;BME280;71462;50.650;6.888;2024-03-08T00:35:13;99786.31;;;1.97;56.83
81961;BME280;71462;50.650;6.888;2024-03-08T00:37:41;99783.97;;;2.19;56.20
81961;BME280;71462;50.650;6.888;2024-03-08T00:40:09;99784.00;;;2.54;54.76
81961;BME280;71462;50.650;6.888;2024-03-08T00:42:39;99780.19;;;2.73;54.16
81961;BME280;71462;50.650;6.888;2024-03-08T00:45:08;99775.72;;;2.50;54.27
81961;BME280;71462;50.650;6.888;2024-03-08T00:47:37;99771.25;;;2.39;54.40
81961;BME280;71462;50.650;6.888;2024-03-08T00:50:06;99775.53;;;1.99;55.78
81961;BME280;71462;50.650;6.888;2024-03-08T00:52:35;99773.13;;;1.97;55.93
81961;BME280;71462;50.650;6.888;2024-03-08T00:55:03;99760.47;;;2.41;54.69
81961;BME280;71462;50.650;6.888;2024-03-08T00:57:31;99761.94;;;2.48;54.15
81961;BME280;71462;50.650;6.888;2024-03-08T01:00:03;99757.69;;;2.47;53.86
81961;BME280;71462;50.650;6.888;2024-03-08T01:02:32;99765.84;;;2.22;54.51
81961;BME280;71462;50.650;6.888;2024-03-08T01:05:02;99758.69;;;2.11;54.84
81961;BME280;71462;50.650;6.888;2024-03-08T01:07:30;99750.00;;;2.11;54.81
81961;BME280;71462;50.650;6.888;2024-03-08T01:09:58;99748.06;;;2.18;54.75
81961;BME280;71462;50.650;6.888;2024-03-08T01:12:27;99741.84;;;2.12;54.69
81961;BME280;71462;50.650;6.888;2024-03-08T01:14:55;99741.19;;;2.29;54.64
81961;BME280;71462;50.650;6.888;2024-03-08T01:17:24;99739.38;;;2.52;53.82
81961;BME280;71462;50.650;6.888;2024-03-08T01:19:53;99736.47;;;2.42;53.66
81961;BME280;71462;50.650;6.888;2024-03-08T01:22:21;99738.78;;;2.62;53.14
81961;BME280;71462;50.650;6.888;2024-03-08T01:24:49;99725.91;;;2.66;52.88
81961;BME280;71462;50.650;6.888;2024-03-08T01:27:17;99735.34;;;2.62;53.03
81961;BME280;71462;50.650;6.888;2024-03-08T01:29:44;99724.53;;;2.86;52.40
81961;BME280;71462;50.650;6.888;2024-03-08T01:32:12;99716.81;;;2.97;51.67
81961;BME280;71462;50.650;6.888;2024-03-08T01:34:42;99714.97;;;2.97;51.53
81961;BME280;71462;50.650;6.888;2024-03-08T01:37:11;99721.72;;;3.05;51.34
81961;BME280;71462;50.650;6.888;2024-03-08T01:39:41;99713.59;;;2.95;51.51
81961;BME280;71462;50.650;6.888;2024-03-08T01:42:08;99711.75;;;2.95;51.34
81961;BME280;71462;50.650;6.888;2024-03-08T01:44:39;99713.72;;;2.76;52.04
81961;BME280;71462;50.650;6.888;2024-03-08T01:47:07;99706.75;;;2.70;52.28
81961;BME280;71462;50.650;6.888;2024-03-08T01:49:35;99713.16;;;2.74;52.17
81961;BME280;71462;50.650;6.888;2024-03-08T01:52:05;99705.34;;;2.79;52.66
81961;BME280;71462;50.650;6.888;2024-03-08T01:54:33;99705.34;;;2.91;51.75
81961;BME280;71462;50.650;6.888;2024-03-08T01:57:02;99700.72;;;2.98;51.66
81961;BME280;71462;50.650;6.888;2024-03-08T01:59:32;99694.72;;;3.03;51.18
81961;BME280;71462;50.650;6.888;2024-03-08T02:02:01;99694.34;;;3.11;51.47
81961;BME280;71462;50.650;6.888;2024-03-08T02:04:30;99695.63;;;3.08;51.02
81961;BME280;71462;50.650;6.888;2024-03-08T02:06:58;99687.94;;;3.07;51.20
81961;BME280;71462;50.650;6.888;2024-03-08T02:09:28;99687.91;;;2.90;51.62
81961;BME280;71462;50.650;6.888;2024-03-08T02:11:56;99683.44;;;2.79;51.83
81961;BME280;71462;50.650;6.888;2024-03-08T02:14:24;99679.56;;;2.70;52.71
81961;BME280;71462;50.650;6.888;2024-03-08T02:16:52;99683.59;;;2.49;53.06
81961;BME280;71462;50.650;6.888;2024-03-08T02:19:20;99684.28;;;2.56;52.66
81961;BME280;71462;50.650;6.888;2024-03-08T02:21:50;99676.28;;;2.51;52.87
81961;BME280;71462;50.650;6.888;2024-03-08T02:24:18;99681.53;;;2.39;53.49
81961;BME280;71462;50.650;6.888;2024-03-08T02:26:53;99669.38;;;2.50;53.10
81961;BME280;71462;50.650;6.888;2024-03-08T02:29:21;99676.16;;;2.58;52.93
81961;BME280;71462;50.650;6.888;2024-03-08T02:31:50;99668.13;;;2.52;52.57
81961;BME280;71462;50.650;6.888;2024-03-08T02:34:19;99665.25;;;2.54;52.83
81961;BME280;71462;50.650;6.888;2024-03-08T02:36:47;99667.88;;;2.54;52.91
81961;BME280;71462;50.650;6.888;2024-03-08T02:39:16;99661.69;;;2.48;52.99
81961;BME280;71462;50.650;6.888;2024-03-08T02:41:46;99661.00;;;2.53;52.81
81961;BME280;71462;50.650;6.888;2024-03-08T02:44:16;99655.69;;;2.65;52.05
81961;BME280;71462;50.650;6.888;2024-03-08T02:46:44;99661.06;;;2.70;52.50
81961;BME280;71462;50.650;6.888;2024-03-08T02:49:12;99655.66;;;2.76;51.83
81961;BME280;71462;50.650;6.888;2024-03-08T02:51:39;99665.28;;;2.82;51.77
81961;BME280;71462;50.650;6.888;2024-03-08T02:54:07;99656.34;;;2.83;51.92
81961;BME280;71462;50.650;6.888;2024-03-08T02:56:38;99646.69;;;2.89;51.77
81961;BME280;71462;50.650;6.888;2024-03-08T02:59:06;99649.91;;;2.91;51.52
81961;BME280;71462;50.650;6.888;2024-03-08T03:01:35;99643.81;;;2.91;51.51
81961;BME280;71462;50.650;6.888;2024-03-08T03:04:03;99644.75;;;2.84;51.26
81961;BME280;71462;50.650;6.888;2024-03-08T03:06:31;99641.09;;;2.85;51.53
81961;BME280;71462;50.650;6.888;2024-03-08T03:09:00;99640.38;;;2.78;51.00
81961;BME280;71462;50.650;6.888;2024-03-08T03:11:28;99646.34;;;2.85;51.24
81961;BME280;71462;50.650;6.888;2024-03-08T03:13:58;99644.84;;;2.90;50.93
81961;BME280;71462;50.650;6.888;2024-03-08T03:16:25;99638.44;;;2.85;51.16
81961;BME280;71462;50.650;6.888;2024-03-08T03:18:53;99637.72;;;2.90;50.90
81961;BME280;71462;50.650;6.888;2024-03-08T03:21:23;99632.13;;;2.86;51.29
81961;BME280;71462;50.650;6.888;2024-03-08T03:23:51;99628.13;;;2.72;51.55
81961;BME280;71462;50.650;6.888;2024-03-08T03:26:19;99635.91;;;2.79;51.19
81961;BME280;71462;50.650;6.888;2024-03-08T03:28:48;99635.81;;;2.74;51.42
81961;BME280;71462;50.650;6.888;2024-03-08T03:31:17;99638.13;;;2.70;51.51
81961;BME280;71462;50.650;6.888;2024-03-08T03:33:45;99629.16;;;2.71;51.40
81961;BME280;71462;50.650;6.888;2024-03-08T03:36:13;99620.44;;;2.71;51.22
81961;BME280;71462;50.650;6.888;2024-03-08T03:38:43;99624.84;;;2.65;51.43
81961;BME280;71462;50.650;6.888;2024-03-08T03:41:10;99627.47;;;2.65;51.42
81961;BME280;71462;50.650;6.888;2024-03-08T03:43:40;99620.94;;;2.68;51.72
81961;BME280;71462;50.650;6.888;2024-03-08T03:46:08;99620.63;;;2.52;52.05
81961;BME280;71462;50.650;6.888;2024-03-08T03:48:38;99619.69;;;2.59;51.87
81961;BME280;71462;50.650;6.888;2024-03-08T03:51:09;99620.50;;;2.59;51.75
81961;BME280;71462;50.650;6.888;2024-03-08T03:53:37;99618.31;;;2.56;51.77
81961;BME280;71462;50.650;6.888;2024-03-08T03:56:05;99620.50;;;2.59;51.18
81961;BME280;71462;50.650;6.888;2024-03-08T03:58:34;99619.38;;;2.55;51.38
81961;BME280;71462;50.650;6.888;2024-03-08T04:01:04;99616.38;;;2.51;51.45
81961;BME280;71462;50.650;6.888;2024-03-08T04:03:32;99619.38;;;2.55;51.35
81961;BME280;71462;50.650;6.888;2024-03-08T04:06:01;99625.91;;;2.52;51.45
81961;BME280;71462;50.650;6.888;2024-03-08T04:08:29;99608.00;;;2.54;51.65
81961;BME280;71462;50.650;6.888;2024-03-08T04:10:57;99614.09;;;2.55;51.32
81961;BME280;71462;50.650;6.888;2024-03-08T04:13:25;99610.75;;;2.48;51.48
81961;BME280;71462;50.650;6.888;2024-03-08T04:15:54;99607.88;;;2.49;51.71
81961;BME280;71462;50.650;6.888;2024-03-08T04:18:21;99602.41;;;2.51;51.38
81961;BME280;71462;50.650;6.888;2024-03-08T04:20:49;99602.97;;;2.41;52.19
81961;BME280;71462;50.650;6.888;2024-03-08T04:23:19;99598.81;;;2.45;51.82
81961;BME280;71462;50.650;6.888;2024-03-08T04:25:47;99602.97;;;2.41;51.46
81961;BME280;71462;50.650;6.888;2024-03-08T04:28:14;99595.84;;;2.42;51.86
81961;BME280;71462;50.650;6.888;2024-03-08T04:30:43;99594.03;;;2.42;51.54
81961;BME280;71462;50.650;6.888;2024-03-08T04:33:12;99598.72;;;2.40;51.70
81961;BME280;71462;50.650;6.888;2024-03-08T04:35:43;99595.38;;;2.45;51.22
81961;BME280;71462;50.650;6.888;2024-03-08T04:38:12;99593.13;;;2.37;51.68
81961;BME280;71462;50.650;6.888;2024-03-08T04:40:41;99586.94;;;2.31;51.92
81961;BME280;71462;50.650;6.888;2024-03-08T04:43:09;99585.91;;;2.32;51.48
81961;BME280;71462;50.650;6.888;2024-03-08T04:45:37;99586.94;;;2.31;51.54
81961;BME280;71462;50.650;6.888;2024-03-08T04:48:06;99589.38;;;2.09;52.04
81961;BME280;71462;50.650;6.888;2024-03-08T04:50:34;99582.22;;;1.51;54.13
81961;BME280;71462;50.650;6.888;2024-03-08T04:53:02;99584.53;;;0.94;56.22
81961;BME280;71462;50.650;6.888;2024-03-08T04:55:31;99575.69;;;0.59;57.57
81961;BME280;71462;50.650;6.888;2024-03-08T04:58:00;99572.94;;;0.35;58.70
81961;BME280;71462;50.650;6.888;2024-03-08T05:00:27;99573.44;;;0.44;58.64
81961;BME280;71462;50.650;6.888;2024-03-08T05:02:55;99570.56;;;0.64;58.04
81961;BME280;71462;50.650;6.888;2024-03-08T05:05:23;99569.25;;;0.55;58.14
81961;BME280;71462;50.650;6.888;2024-03-08T05:07:51;99563.28;;;0.11;59.64
81961;BME280;71462;50.650;6.888;2024-03-08T05:10:19;99559.31;;;-0.16;60.50
81961;BME280;71462;50.650;6.888;2024-03-08T05:12:48;99562.81;;;-0.41;61.79
81961;BME280;71462;50.650;6.888;2024-03-08T05:15:17;99563.56;;;-0.59;63.04
81961;BME280;71462;50.650;6.888;2024-03-08T05:17:47;99563.44;;;-0.70;63.56
81961;BME280;71462;50.650;6.888;2024-03-08T05:20:14;99554.44;;;-0.56;63.10
81961;BME280;71462;50.650;6.888;2024-03-08T05:22:43;99556.75;;;-0.66;63.63
81961;BME280;71462;50.650;6.888;2024-03-08T05:25:11;99568.66;;;-0.20;62.05
81961;BME280;71462;50.650;6.888;2024-03-08T05:27:40;99564.31;;;0.28;60.07
81961;BME280;71462;50.650;6.888;2024-03-08T05:30:09;99563.00;;;0.56;58.55
81961;BME280;71462;50.650;6.888;2024-03-08T05:32:43;99563.16;;;0.73;57.83
81961;BME280;71462;50.650;6.888;2024-03-08T05:35:12;99559.13;;;0.88;57.29
81961;BME280;71462;50.650;6.888;2024-03-08T05:37:42;99561.88;;;0.93;56.86
81961;BME280;71462;50.650;6.888;2024-03-08T05:40:11;99560.38;;;0.97;56.46
81961;BME280;71462;50.650;6.888;2024-03-08T05:42:44;99556.59;;;0.93;56.76
81961;BME280;71462;50.650;6.888;2024-03-08T05:45:12;99551.38;;;0.75;57.25
81961;BME280;71462;50.650;6.888;2024-03-08T05:47:42;99552.53;;;0.79;57.29
81961;BME280;71462;50.650;6.888;2024-03-08T05:50:11;99547.47;;;0.96;56.67
81961;BME280;71462;50.650;6.888;2024-03-08T05:52:39;99538.66;;;0.42;58.61
81961;BME280;71462;50.650;6.888;2024-03-08T05:55:08;99537.75;;;-0.00;60.37
81961;BME280;71462;50.650;6.888;2024-03-08T05:57:37;99537.28;;;-0.15;61.50
81961;BME280;71462;50.650;6.888;2024-03-08T06:00:07;99534.44;;;-0.32;61.86
81961;BME280;71462;50.650;6.888;2024-03-08T06:02:38;99534.25;;;-0.56;62.62
81961;BME280;71462;50.650;6.888;2024-03-08T06:05:11;99538.75;;;-0.63;63.37
81961;BME280;71462;50.650;6.888;2024-03-08T06:07:39;99528.84;;;-0.61;64.80
81961;BME280;71462;50.650;6.888;2024-03-08T06:10:10;99521.00;;;-0.42;64.41
81961;BME280;71462;50.650;6.888;2024-03-08T06:12:40;99527.16;;;-0.55;63.79
81961;BME280;71462;50.650;6.888;2024-03-08T06:15:11;99522.72;;;-0.54;63.45
81961;BME280;71462;50.650;6.888;2024-03-08T06:17:56;99526.53;;;-0.75;64.57
81961;BME280;71462;50.650;6.888;2024-03-08T06:20:32;99520.38;;;-0.63;64.86
81961;BME280;71462;50.650;6.888;2024-03-08T06:23:00;99528.06;;;-0.43;64.63
81961;BME280;71462;50.650;6.888;2024-03-08T06:25:29;99536.56;;;0.14;61.60
81961;BME280;71462;50.650;6.888;2024-03-08T06:27:58;99532.28;;;0.50;60.87
81961;BME280;71462;50.650;6.888;2024-03-08T06:30:26;99534.47;;;0.83;60.16
81961;BME280;71462;50.650;6.888;2024-03-08T06:32:54;99528.03;;;1.09;59.40
81961;BME280;71462;50.650;6.888;2024-03-08T06:35:22;99525.19;;;1.22;58.62
81961;BME280;71462;50.650;6.888;2024-03-08T06:37:53;99529.31;;;1.41;57.10
81961;BME280;71462;50.650;6.888;2024-03-08T06:40:22;99526.25;;;1.56;56.76
81961;BME280;71462;50.650;6.888;2024-03-08T06:42:51;99529.22;;;1.48;56.77
81961;BME280;71462;50.650;6.888;2024-03-08T06:45:20;99530.34;;;1.40;57.12
81961;BME280;71462;50.650;6.888;2024-03-08T06:47:51;99529.22;;;1.36;57.33
81961;BME280;71462;50.650;6.888;2024-03-08T06:50:22;99522.34;;;1.47;56.79
81961;BME280;71462;50.650;6.888;2024-03-08T06:52:52;99513.53;;;1.65;56.69
81961;BME280;71462;50.650;6.888;2024-03-08T06:55:20;99520.84;;;1.51;56.74
81961;BME280;71462;50.650;6.888;2024-03-08T06:57:48;99516.16;;;1.41;57.19
81961;BME280;71462;50.650;6.888;2024-03-08T07:00:16;99517.97;;;1.52;57.30
81961;BME280;71462;50.650;6.888;2024-03-08T07:02:47;99523.59;;;1.79;56.43
81961;BME280;71462;50.650;6.888;2024-03-08T07:05:16;99526.81;;;2.05;55.75
81961;BME280;71462;50.650;6.888;2024-03-08T07:07:44;99529.97;;;2.30;55.28
81961;BME280;71462;50.650;6.888;2024-03-08T07:10:16;99521.28;;;2.46;54.72
81961;BME280;71462;50.650;6.888;2024-03-08T07:12:44;99516.72;;;2.70;54.88
81961;BME280;71462;50.650;6.888;2024-03-08T07:15:13;99518.69;;;2.92;53.90
81961;BME280;71462;50.650;6.888;2024-03-08T07:17:41;99513.09;;;3.38;53.18
81961;BME280;71462;50.650;6.888;2024-03-08T07:20:11;99514.63;;;3.34;52.77
81961;BME280;71462;50.650;6.888;2024-03-08T07:22:41;99509.72;;;3.43;52.78
81961;BME280;71462;50.650;6.888;2024-03-08T07:25:14;99505.09;;;3.33;53.29
81961;BME280;71462;50.650;6.888;2024-03-08T07:27:56;99507.97;;;3.48;52.63
81961;BME280;71462;50.650;6.888;2024-03-08T07:30:26;99498.75;;;3.34;53.04
81961;BME280;71462;50.650;6.888;2024-03-08T07:33:18;99497.91;;;3.29;53.57
81961;BME280;71462;50.650;6.888;2024-03-08T07:35:50;99498.38;;;3.26;53.49
81961;BME280;71462;50.650;6.888;2024-03-08T07:38:21;99497.66;;;3.30;53.32
81961;BME280;71462;50.650;6.888;2024-03-08T07:40:49;99496.25;;;3.61;53.09
81961;BME280;71462;50.650;6.888;2024-03-08T07:43:19;99492.28;;;3.80;52.09
81961;BME280;71462;50.650;6.888;2024-03-08T07:45:46;99487.38;;;3.89;52.51
81961;BME280;71462;50.650;6.888;2024-03-08T07:48:15;99486.75;;;3.82;52.59
81961;BME280;71462;50.650;6.888;2024-03-08T07:50:45;99476.84;;;3.94;52.34
81961;BME280;71462;50.650;6.888;2024-03-08T07:53:13;99478.75;;;3.77;52.65
81961;BME280;71462;50.650;6.888;2024-03-08T07:55:41;99471.97;;;3.64;53.18
81961;BME280;71462;50.650;6.888;2024-03-08T07:58:11;99474.97;;;3.34;54.19
81961;BME280;71462;50.650;6.888;2024-03-08T08:00:41;99462.34;;;2.69;55.62
81961;BME280;71462;50.650;6.888;2024-03-08T08:03:10;99469.69;;;2.50;56.06
81961;BME280;71462;50.650;6.888;2024-03-08T08:05:41;99465.47;;;2.38;57.50
81961;BME280;71462;50.650;6.888;2024-03-08T08:08:08;99459.81;;;2.46;57.09
81961;BME280;71462;50.650;6.888;2024-03-08T08:10:37;99462.34;;;2.12;57.68
81961;BME280;71462;50.650;6.888;2024-03-08T08:13:07;99443.72;;;2.31;57.98
81961;BME280;71462;50.650;6.888;2024-03-08T08:15:35;99446.81;;;2.28;58.20
81961;BME280;71462;50.650;6.888;2024-03-08T08:18:05;99442.59;;;2.27;58.79
81961;BME280;71462;50.650;6.888;2024-03-08T08:20:33;99428.13;;;2.29;59.77
81961;BME280;71462;50.650;6.888;2024-03-08T08:23:01;99430.78;;;2.17;59.69
81961;BME280;71462;50.650;6.888;2024-03-08T08:25:29;99435.28;;;2.17;59.28
81961;BME280;71462;50.650;6.888;2024-03-08T08:27:57;99427.25;;;2.40;58.71
81961;BME280;71462;50.650;6.888;2024-03-08T08:30:25;99431.72;;;2.68;59.02
81961;BME280;71462;50.650;6.888;2024-03-08T08:32:52;99434.09;;;2.53;57.70
81961;BME280;71462;50.650;6.888;2024-03-08T08:35:22;99429.63;;;2.70;57.76
81961;BME280;71462;50.650;6.888;2024-03-08T08:37:50;99424.44;;;2.59;58.45
81961;BME280;71462;50.650;6.888;2024-03-08T08:40:18;99425.03;;;2.49;57.76
81961;BME280;71462;50.650;6.888;2024-03-08T08:42:46;99426.91;;;2.65;57.40
81961;BME280;71462;50.650;6.888;2024-03-08T08:45:16;99417.38;;;2.64;56.96
81961;BME280;71462;50.650;6.888;2024-03-08T08:47:50;99415.47;;;2.60;58.04
81961;BME280;71462;50.650;6.888;2024-03-08T08:50:18;99409.56;;;2.52;57.66
81961;BME280;71462;50.650;6.888;2024-03-08T08:52:50;99412.53;;;2.90;57.68
81961;BME280;71462;50.650;6.888;2024-03-08T08:55:20;99402.09;;;3.16;56.55
81961;BME280;71462;50.650;6.888;2024-03-08T08:57:51;99396.88;;;3.22;56.47
81961;BME280;71462;50.650;6.888;2024-03-08T09:00:20;99412.00;;;3.26;57.21
81961;BME280;71462;50.650;6.888;2024-03-08T09:02:48;99403.94;;;3.16;56.23
81961;BME280;71462;50.650;6.888;2024-03-08T09:05:17;99401.47;;;2.93;56.40
81961;BME280;71462;50.650;6.888;2024-03-08T09:07:45;99388.97;;;3.05;56.47
81961;BME280;71462;50.650;6.888;2024-03-08T09:10:15;99399.28;;;3.23;56.88
81961;BME280;71462;50.650;6.888;2024-03-08T09:12:44;99394.28;;;3.65;55.14
81961;BME280;71462;50.650;6.888;2024-03-08T09:15:12;99392.81;;;3.53;54.50
81961;BME280;71462;50.650;6.888;2024-03-08T09:17:40;99391.66;;;3.27;54.58
81961;BME280;71462;50.650;6.888;2024-03-08T09:20:11;99387.38;;;3.21;55.34
81961;BME280;71462;50.650;6.888;2024-03-08T09:22:45;99391.91;;;3.47;54.42
81961;BME280;71462;50.650;6.888;2024-03-08T09:25:17;99387.53;;;3.53;54.57
81961;BME280;71462;50.650;6.888;2024-03-08T09:27:52;99381.59;;;3.67;55.68
81961;BME280;71462;50.650;6.888;2024-03-08T09:30:24;99380.34;;;3.97;54.16
81961;BME280;71462;50.650;6.888;2024-03-08T09:33:06;99378.44;;;4.14;54.35
81961;BME280;71462;50.650;6.888;2024-03-08T09:35:37;99362.78;;;4.12;53.43
81961;BME280;71462;50.650;6.888;2024-03-08T09:38:12;99362.19;;;4.32;54.15
81961;BME280;71462;50.650;6.888;2024-03-08T09:40:53;99356.53;;;4.19;53.29
81961;BME280;71462;50.650;6.888;2024-03-08T09:43:29;99353.91;;;4.24;54.36
81961;BME280;71462;50.650;6.888;2024-03-08T09:46:16;99351.56;;;4.27;53.63
81961;BME280;71462;50.650;6.888;2024-03-08T09:49:02;99348.38;;;4.25;52.62
81961;BME280;71462;50.650;6.888;2024-03-08T09:51:34;99345.63;;;4.42;51.66
81961;BME280;71462;50.650;6.888;2024-03-08T09:54:10;99335.66;;;4.22;53.28
81961;BME280;71462;50.650;6.888;2024-03-08T09:56:52;99329.44;;;4.70;51.82
81961;BME280;71462;50.650;6.888;2024-03-08T09:59:32;99333.50;;;4.46;50.14
81961;BME280;71462;50.650;6.888;2024-03-08T10:02:24;99293.22;;;4.44;52.00
81961;BME280;71462;50.650;6.888;2024-03-08T10:05:19;99316.66;;;4.62;51.06
81961;BME280;71462;50.650;6.888;2024-03-08T10:07:53;99317.09;;;4.86;51.30
81961;BME280;71462;50.650;6.888;2024-03-08T10:10:41;99294.56;;;4.79;49.65
81961;BME280;71462;50.650;6.888;2024-03-08T10:13:50;99322.00;;;4.67;50.44
81961;BME280;71462;50.650;6.888;2024-03-08T10:16:40;99307.44;;;4.70;51.66
81961;BME280;71462;50.650;6.888;2024-03-08T10:19:37;99305.63;;;4.76;50.22
81961;BME280;71462;50.650;6.888;2024-03-08T10:22:14;99311.38;;;4.62;50.96
81961;BME280;71462;50.650;6.888;2024-03-08T10:24:44;99316.28;;;4.81;51.22
81961;BME280;71462;50.650;6.888;2024-03-08T10:27:12;99309.34;;;5.22;51.09
81961;BME280;71462;50.650;6.888;2024-03-08T10:29:46;99312.84;;;5.38;49.50
81961;BME280;71462;50.650;6.888;2024-03-08T10:32:14;99305.06;;;5.16;49.50
81961;BME280;71462;50.650;6.888;2024-03-08T10:34:42;99292.66;;;5.26;49.87
81961;BME280;71462;50.650;6.888;2024-03-08T10:37:15;99280.59;;;5.61;48.36
81961;BME280;71462;50.650;6.888;2024-03-08T10:39:52;99294.03;;;5.39;48.30
81961;BME280;71462;50.650;6.888;2024-03-08T10:42:24;99278.06;;;5.19;48.59
81961;BME280;71462;50.650;6.888;2024-03-08T10:45:04;99287.38;;;5.31;50.81
81961;BME280;71462;50.650;6.888;2024-03-08T10:47:40;99287.97;;;5.49;48.90
81961;BME280;71462;50.650;6.888;2024-03-08T10:50:14;99284.31;;;5.75;48.10
81961;BME280;71462;50.650;6.888;2024-03-08T10:52:49;99288.00;;;5.69;47.16
81961;BME280;71462;50.650;6.888;2024-03-08T10:55:18;99281.91;;;5.68;48.23
81961;BME280;71462;50.650;6.888;2024-03-08T10:57:47;99265.22;;;5.73;48.34
81961;BME280;71462;50.650;6.888;2024-03-08T11:00:16;99273.16;;;5.53;48.49
81961;BME280;71462;50.650;6.888;2024-03-08T11:02:53;99270.28;;;5.90;47.56
81961;BME280;71462;50.650;6.888;2024-03-08T11:05:32;99268.69;;;5.94;47.22
81961;BME280;71462;50.650;6.888;2024-03-08T11:08:01;99269.75;;;6.03;47.03
81961;BME280;71462;50.650;6.888;2024-03-08T11:10:30;99261.00;;;6.08;46.73
81961;BME280;71462;50.650;6.888;2024-03-08T11:12:59;99253.06;;;5.97;46.93
81961;BME280;71462;50.650;6.888;2024-03-08T11:15:29;99250.94;;;5.94;46.21
81961;BME280;71462;50.650;6.888;2024-03-08T11:17:58;99246.13;;;5.61;47.30
81961;BME280;71462;50.650;6.888;2024-03-08T11:20:27;99255.38;;;5.58;46.78
81961;BME280;71462;50.650;6.888;2024-03-08T11:23:00;99249.81;;;5.60;46.37
81961;BME280;71462;50.650;6.888;2024-03-08T11:25:33;99244.03;;;5.98;46.12
81961;BME280;71462;50.650;6.888;2024-03-08T11:28:11;99231.28;;;6.01;46.57
81961;BME280;71462;50.650;6.888;2024-03-08T11:30:46;99212.75;;;6.11;46.16
81961;BME280;71462;50.650;6.888;2024-03-08T11:33:15;99219.34;;;5.98;46.49
81961;BME280;71462;50.650;6.888;2024-03-08T11:35:45;99216.19;;;6.11;44.93
81961;BME280;71462;50.650;6.888;2024-03-08T11:38:13;99212.72;;;6.36;45.99
81961;BME280;71462;50.650;6.888;2024-03-08T11:40:45;99213.25;;;6.33;44.90
81961;BME280;71462;50.650;6.888;2024-03-08T11:43:16;99195.22;;;6.10;45.53
81961;BME280;71462;50.650;6.888;2024-03-08T11:45:48;99207.69;;;5.99;45.33
81961;BME280;71462;50.650;6.888;2024-03-08T11:48:19;99201.03;;;6.32;45.76
81961;BME280;71462;50.650;6.888;2024-03-08T11:50:59;99191.94;;;6.69;44.71
81961;BME280;71462;50.650;6.888;2024-03-08T11:53:27;99195.66;;;6.68;45.39
81961;BME280;71462;50.650;6.888;2024-03-08T11:56:08;99185.56;;;6.65;45.27
81961;BME280;71462;50.650;6.888;2024-03-08T11:58:40;99189.50;;;6.82;43.98
81961;BME280;71462;50.650;6.888;2024-03-08T12:01:25;99179.97;;;6.71;43.93
81961;BME280;71462;50.650;6.888;2024-03-08T12:03:56;99167.66;;;6.96;43.39
81961;BME280;71462;50.650;6.888;2024-03-08T12:07:01;99166.38;;;6.88;43.48
81961;BME280;71462;50.650;6.888;2024-03-08T12:09:35;99168.03;;;6.74;42.34
81961;BME280;71462;50.650;6.888;2024-03-08T12:12:05;99171.72;;;6.73;42.09
81961;BME280;71462;50.650;6.888;2024-03-08T12:14:34;99172.28;;;6.75;42.58
81961;BME280;71462;50.650;6.888;2024-03-08T12:17:04;99172.00;;;6.76;42.69
81961;BME280;71462;50.650;6.888;2024-03-08T12:19:33;99146.69;;;6.89;40.64
81961;BME280;71462;50.650;6.888;2024-03-08T12:22:07;99158.78;;;6.56;41.36
81961;BME280;71462;50.650;6.888;2024-03-08T12:24:36;99151.75;;;6.85;41.60
81961;BME280;71462;50.650;6.888;2024-03-08T12:27:17;99148.94;;;6.62;42.05
81961;BME280;71462;50.650;6.888;2024-03-08T12:29:45;99141.38;;;6.89;41.61
81961;BME280;71462;50.650;6.888;2024-03-08T12:32:24;99144.63;;;6.71;40.61
81961;BME280;71462;50.650;6.888;2024-03-08T12:34:52;99140.97;;;6.62;41.25
81961;BME280;71462;50.650;6.888;2024-03-08T12:37:22;99133.13;;;6.90;40.64
81961;BME280;71462;50.650;6.888;2024-03-08T12:39:50;99128.41;;;7.27;41.90
81961;BME280;71462;50.650;6.888;2024-03-08T12:42:18;99136.97;;;7.18;40.71
81961;BME280;71462;50.650;6.888;2024-03-08T12:44:46;99122.97;;;7.81;39.46
81961;BME280;71462;50.650;6.888;2024-03-08T12:47:13;99126.69;;;7.46;39.94
81961;BME280;71462;50.650;6.888;2024-03-08T12:49:42;99123.78;;;7.42;39.69
81961;BME280;71462;50.650;6.888;2024-03-08T12:52:11;99110.63;;;7.22;41.23
81961;BME280;71462;50.650;6.888;2024-03-08T12:54:39;99120.56;;;7.06;41.96
81961;BME280;71462;50.650;6.888;2024-03-08T12:57:07;99102.88;;;7.26;42.46
81961;BME280;71462;50.650;6.888;2024-03-08T12:59:34;99111.88;;;6.90;40.47
81961;BME280;71462;50.650;6.888;2024-03-08T13:02:02;99094.19;;;7.15;42.10
81961;BME280;71462;50.650;6.888;2024-03-08T13:04:32;99087.03;;;7.15;41.27
81961;BME280;71462;50.650;6.888;2024-03-08T13:07:07;99097.63;;;7.20;41.97
81961;BME280;71462;50.650;6.888;2024-03-08T13:09:45;99081.38;;;7.56;42.12
81961;BME280;71462;50.650;6.888;2024-03-08T13:12:29;99073.91;;;7.58;42.11
81961;BME280;71462;50.650;6.888;2024-03-08T13:15:04;99062.91;;;7.41;40.29
81961;BME280;71462;50.650;6.888;2024-03-08T13:17:38;99076.34;;;7.20;42.23
81961;BME280;71462;50.650;6.888;2024-03-08T13:20:07;99074.63;;;7.35;43.56
81961;BME280;71462;50.650;6.888;2024-03-08T13:22:37;99064.25;;;7.67;41.90
81961;BME280;71462;50.650;6.888;2024-03-08T13:25:06;99068.63;;;7.87;41.06
81961;BME280;71462;50.650;6.888;2024-03-08T13:27:48;99054.28;;;7.83;41.19